sensor_id;sensor_type;location;lat;lon;timestamp;temperature;humidity
78467;SHT31;67759;51.972;5.650;2023-04-25T00:02:12;8.5;67.7
78467;SHT31;67759;51.972;5.650;2023-04-25T00:04:42;8.4;67.6
78467;SHT31;67759;51.972;5.650;2023-04-25T00:07:12;8.4;67.3
78467;SHT31;67759;51.972;5.650;2023-04-25T00:09:41;8.3;67.8
78467;SHT31;67759;51.972;5.650;2023-04-25T00:12:12;8.3;68.1
78467;SHT31;67759;51.972;5.650;2023-04-25T00:14:43;8.2;67.8
78467;SHT31;67759;51.972;5.650;2023-04-25T00:17:12;8.2;68.2
78467;SHT31;67759;51.972;5.650;2023-04-25T00:19:42;8.2;68.0
78467;SHT31;67759;51.972;5.650;2023-04-25T00:22:13;8.1;68.4
78467;SHT31;67759;51.972;5.650;2023-04-25T00:24:43;8.1;68.4
78467;SHT31;67759;51.972;5.650;2023-04-25T00:27:14;8.1;68.1
78467;SHT31;67759;51.972;5.650;2023-04-25T00:29:44;8.1;68.5
78467;SHT31;67759;51.972;5.650;2023-04-25T00:32:14;8.1;68.4
78467;SHT31;67759;51.972;5.650;2023-04-25T00:34:43;8.0;69.3
78467;SHT31;67759;51.972;5.650;2023-04-25T00:37:13;8.0;68.9
78467;SHT31;67759;51.972;5.650;2023-04-25T00:39:43;8.0;69.1
78467;SHT31;67759;51.972;5.650;2023-04-25T00:42:13;7.9;68.5
78467;SHT31;67759;51.972;5.650;2023-04-25T00:44:43;7.9;67.8
78467;SHT31;67759;51.972;5.650;2023-04-25T00:47:15;7.9;68.6
78467;SHT31;67759;51.972;5.650;2023-04-25T00:49:45;7.9;69.0
78467;SHT31;67759;51.972;5.650;2023-04-25T00:52:17;7.9;68.9
78467;SHT31;67759;51.972;5.650;2023-04-25T00:54:47;7.8;69.1
78467;SHT31;67759;51.972;5.650;2023-04-25T00:57:17;7.8;68.8
78467;SHT31;67759;51.972;5.650;2023-04-25T00:59:48;7.8;68.7
78467;SHT31;67759;51.972;5.650;2023-04-25T01:02:20;7.8;68.6
78467;SHT31;67759;51.972;5.650;2023-04-25T01:04:50;7.8;68.7
78467;SHT31;67759;51.972;5.650;2023-04-25T01:07:20;7.8;69.1
78467;SHT31;67759;51.972;5.650;2023-04-25T01:09:51;7.8;69.0
78467;SHT31;67759;51.972;5.650;2023-04-25T01:12:23;7.8;69.0
78467;SHT31;67759;51.972;5.650;2023-04-25T01:14:54;7.9;69.4
78467;SHT31;67759;51.972;5.650;2023-04-25T01:17:26;7.9;68.8
78467;SHT31;67759;51.972;5.650;2023-04-25T01:19:57;8.0;68.9
78467;SHT31;67759;51.972;5.650;2023-04-25T01:22:26;8.0;68.8
78467;SHT31;67759;51.972;5.650;2023-04-25T01:24:57;8.1;68.1
78467;SHT31;67759;51.972;5.650;2023-04-25T01:27:27;8.1;67.5
78467;SHT31;67759;51.972;5.650;2023-04-25T01:29:57;8.1;67.7
78467;SHT31;67759;51.972;5.650;2023-04-25T01:32:30;8.2;67.3
78467;SHT31;67759;51.972;5.650;2023-04-25T01:35:08;8.2;67.2
78467;SHT31;67759;51.972;5.650;2023-04-25T01:37:40;8.2;67.1
78467;SHT31;67759;51.972;5.650;2023-04-25T01:40:12;8.3;66.9
78467;SHT31;67759;51.972;5.650;2023-04-25T01:42:43;8.3;67.0
78467;SHT31;67759;51.972;5.650;2023-04-25T01:45:13;8.3;66.8
78467;SHT31;67759;51.972;5.650;2023-04-25T01:47:44;8.3;66.5
78467;SHT31;67759;51.972;5.650;2023-04-25T01:50:17;8.3;66.4
78467;SHT31;67759;51.972;5.650;2023-04-25T01:52:49;8.3;65.8
78467;SHT31;67759;51.972;5.650;2023-04-25T01:55:19;8.4;66.4
78467;SHT31;67759;51.972;5.650;2023-04-25T01:57:49;8.4;66.2
78467;SHT31;67759;51.972;5.650;2023-04-25T02:00:19;8.4;65.4
78467;SHT31;67759;51.972;5.650;2023-04-25T02:02:48;8.4;65.5
78467;SHT31;67759;51.972;5.650;2023-04-25T02:05:20;8.4;65.1
78467;SHT31;67759;51.972;5.650;2023-04-25T02:07:51;8.4;65.3
78467;SHT31;67759;51.972;5.650;2023-04-25T02:10:20;8.3;65.0
78467;SHT31;67759;51.972;5.650;2023-04-25T02:12:50;8.3;64.9
78467;SHT31;67759;51.972;5.650;2023-04-25T02:15:19;8.3;64.4
78467;SHT31;67759;51.972;5.650;2023-04-25T02:17:49;8.2;64.7
78467;SHT31;67759;51.972;5.650;2023-04-25T02:20:20;8.1;64.8
78467;SHT31;67759;51.972;5.650;2023-04-25T02:22:51;8.1;64.8
78467;SHT31;67759;51.972;5.650;2023-04-25T02:25:23;8.0;65.1
78467;SHT31;67759;51.972;5.650;2023-04-25T02:27:53;8.0;65.1
78467;SHT31;67759;51.972;5.650;2023-04-25T02:30:23;7.9;65.2
78467;SHT31;67759;51.972;5.650;2023-04-25T02:32:52;7.9;65.3
78467;SHT31;67759;51.972;5.650;2023-04-25T02:35:22;7.9;65.2
78467;SHT31;67759;51.972;5.650;2023-04-25T02:37:53;7.9;65.4
78467;SHT31;67759;51.972;5.650;2023-04-25T02:40:23;7.9;65.0
78467;SHT31;67759;51.972;5.650;2023-04-25T02:42:52;7.8;65.2
78467;SHT31;67759;51.972;5.650;2023-04-25T02:45:22;7.8;65.1
78467;SHT31;67759;51.972;5.650;2023-04-25T02:47:54;7.8;65.0
78467;SHT31;67759;51.972;5.650;2023-04-25T02:50:25;7.7;65.3
78467;SHT31;67759;51.972;5.650;2023-04-25T02:52:55;7.7;65.3
78467;SHT31;67759;51.972;5.650;2023-04-25T02:55:24;7.7;65.3
78467;SHT31;67759;51.972;5.650;2023-04-25T02:57:54;7.6;65.3
78467;SHT31;67759;51.972;5.650;2023-04-25T03:00:27;7.6;65.3
78467;SHT31;67759;51.972;5.650;2023-04-25T03:02:58;7.6;65.4
78467;SHT31;67759;51.972;5.650;2023-04-25T03:05:28;7.5;65.4
78467;SHT31;67759;51.972;5.650;2023-04-25T03:07:57;7.5;65.4
78467;SHT31;67759;51.972;5.650;2023-04-25T03:10:27;7.5;65.8
78467;SHT31;67759;51.972;5.650;2023-04-25T03:12:56;7.4;66.3
78467;SHT31;67759;51.972;5.650;2023-04-25T03:15:26;7.4;66.3
78467;SHT31;67759;51.972;5.650;2023-04-25T03:17:55;7.3;66.6
78467;SHT31;67759;51.972;5.650;2023-04-25T03:20:25;7.3;67.1
78467;SHT31;67759;51.972;5.650;2023-04-25T03:22:56;7.2;66.7
78467;SHT31;67759;51.972;5.650;2023-04-25T03:25:29;7.2;67.4
78467;SHT31;67759;51.972;5.650;2023-04-25T03:27:58;7.2;67.8
78467;SHT31;67759;51.972;5.650;2023-04-25T03:30:28;7.2;67.6
78467;SHT31;67759;51.972;5.650;2023-04-25T03:32:57;7.2;68.1
78467;SHT31;67759;51.972;5.650;2023-04-25T03:35:27;7.3;68.4
78467;SHT31;67759;51.972;5.650;2023-04-25T03:37:59;7.3;68.2
78467;SHT31;67759;51.972;5.650;2023-04-25T03:40:28;7.4;68.1
78467;SHT31;67759;51.972;5.650;2023-04-25T03:42:58;7.5;67.6
78467;SHT31;67759;51.972;5.650;2023-04-25T03:45:27;7.5;67.0
78467;SHT31;67759;51.972;5.650;2023-04-25T03:47:57;7.5;67.2
78467;SHT31;67759;51.972;5.650;2023-04-25T03:50:27;7.5;67.3
78467;SHT31;67759;51.972;5.650;2023-04-25T03:52:56;7.5;67.4
78467;SHT31;67759;51.972;5.650;2023-04-25T03:55:26;7.5;67.0
78467;SHT31;67759;51.972;5.650;2023-04-25T03:57:55;7.4;67.7
78467;SHT31;67759;51.972;5.650;2023-04-25T04:00:25;7.4;67.7
78467;SHT31;67759;51.972;5.650;2023-04-25T04:02:55;7.3;67.3
78467;SHT31;67759;51.972;5.650;2023-04-25T04:05:25;7.2;67.7
78467;SHT31;67759;51.972;5.650;2023-04-25T04:07:55;7.2;68.1
78467;SHT31;67759;51.972;5.650;2023-04-25T04:10:25;7.2;68.6
78467;SHT31;67759;51.972;5.650;2023-04-25T04:12:56;7.1;68.7
78467;SHT31;67759;51.972;5.650;2023-04-25T04:15:25;7.1;68.9
78467;SHT31;67759;51.972;5.650;2023-04-25T04:17:55;7.1;69.1
78467;SHT31;67759;51.972;5.650;2023-04-25T04:20:30;7.1;68.9
78467;SHT31;67759;51.972;5.650;2023-04-25T04:23:01;7.1;68.6
78467;SHT31;67759;51.972;5.650;2023-04-25T04:25:31;7.2;68.7
78467;SHT31;67759;51.972;5.650;2023-04-25T04:28:04;7.2;68.3
78467;SHT31;67759;51.972;5.650;2023-04-25T04:30:36;7.2;68.3
78467;SHT31;67759;51.972;5.650;2023-04-25T04:33:07;7.2;68.2
78467;SHT31;67759;51.972;5.650;2023-04-25T04:35:38;7.3;67.9
78467;SHT31;67759;51.972;5.650;2023-04-25T04:38:09;7.3;68.4
78467;SHT31;67759;51.972;5.650;2023-04-25T04:40:42;7.4;67.3
78467;SHT31;67759;51.972;5.650;2023-04-25T04:43:12;7.5;67.2
78467;SHT31;67759;51.972;5.650;2023-04-25T04:45:44;7.6;67.5
78467;SHT31;67759;51.972;5.650;2023-04-25T04:48:15;7.7;66.8
78467;SHT31;67759;51.972;5.650;2023-04-25T04:50:45;7.8;66.8
78467;SHT31;67759;51.972;5.650;2023-04-25T04:53:15;7.8;65.8
78467;SHT31;67759;51.972;5.650;2023-04-25T04:55:45;7.9;66.6
78467;SHT31;67759;51.972;5.650;2023-04-25T04:58:14;8.0;65.6
78467;SHT31;67759;51.972;5.650;2023-04-25T05:00:44;8.0;65.7
78467;SHT31;67759;51.972;5.650;2023-04-25T05:03:14;8.1;65.2
78467;SHT31;67759;51.972;5.650;2023-04-25T05:05:43;8.1;65.6
78467;SHT31;67759;51.972;5.650;2023-04-25T05:08:14;8.2;65.9
78467;SHT31;67759;51.972;5.650;2023-04-25T05:10:43;8.3;65.5
78467;SHT31;67759;51.972;5.650;2023-04-25T05:13:13;8.3;64.9
78467;SHT31;67759;51.972;5.650;2023-04-25T05:15:43;8.4;64.4
78467;SHT31;67759;51.972;5.650;2023-04-25T05:18:12;8.4;64.8
78467;SHT31;67759;51.972;5.650;2023-04-25T05:20:43;8.4;64.3
78467;SHT31;67759;51.972;5.650;2023-04-25T05:23:13;8.5;64.3
78467;SHT31;67759;51.972;5.650;2023-04-25T05:25:43;8.5;63.6
78467;SHT31;67759;51.972;5.650;2023-04-25T05:28:13;8.5;63.9
78467;SHT31;67759;51.972;5.650;2023-04-25T05:30:42;8.6;64.9
78467;SHT31;67759;51.972;5.650;2023-04-25T05:33:13;8.6;64.6
78467;SHT31;67759;51.972;5.650;2023-04-25T05:35:43;8.6;64.1
78467;SHT31;67759;51.972;5.650;2023-04-25T05:38:13;8.6;64.5
78467;SHT31;67759;51.972;5.650;2023-04-25T05:40:43;8.6;64.8
78467;SHT31;67759;51.972;5.650;2023-04-25T05:43:13;8.6;64.4
78467;SHT31;67759;51.972;5.650;2023-04-25T05:45:42;8.6;63.5
78467;SHT31;67759;51.972;5.650;2023-04-25T05:48:14;8.6;64.3
78467;SHT31;67759;51.972;5.650;2023-04-25T05:50:43;8.6;63.8
78467;SHT31;67759;51.972;5.650;2023-04-25T05:53:14;8.6;64.0
78467;SHT31;67759;51.972;5.650;2023-04-25T05:55:43;8.6;64.2
78467;SHT31;67759;51.972;5.650;2023-04-25T05:58:13;8.6;64.3
78467;SHT31;67759;51.972;5.650;2023-04-25T06:00:42;8.6;63.9
78467;SHT31;67759;51.972;5.650;2023-04-25T06:03:13;8.6;63.7
78467;SHT31;67759;51.972;5.650;2023-04-25T06:05:43;8.6;64.7
78467;SHT31;67759;51.972;5.650;2023-04-25T06:08:13;8.7;64.6
78467;SHT31;67759;51.972;5.650;2023-04-25T06:10:43;8.7;63.5
78467;SHT31;67759;51.972;5.650;2023-04-25T06:13:13;8.8;64.5
78467;SHT31;67759;51.972;5.650;2023-04-25T06:15:43;8.8;64.6
78467;SHT31;67759;51.972;5.650;2023-04-25T06:18:13;8.9;64.3
78467;SHT31;67759;51.972;5.650;2023-04-25T06:20:42;8.9;64.0
78467;SHT31;67759;51.972;5.650;2023-04-25T06:23:12;9.0;63.7
78467;SHT31;67759;51.972;5.650;2023-04-25T06:25:41;9.1;62.2
78467;SHT31;67759;51.972;5.650;2023-04-25T06:28:12;9.1;63.3
78467;SHT31;67759;51.972;5.650;2023-04-25T06:30:42;9.2;63.8
78467;SHT31;67759;51.972;5.650;2023-04-25T06:33:11;9.3;63.6
78467;SHT31;67759;51.972;5.650;2023-04-25T06:35:41;9.4;62.5
78467;SHT31;67759;51.972;5.650;2023-04-25T06:38:11;9.4;62.2
78467;SHT31;67759;51.972;5.650;2023-04-25T06:40:40;9.5;62.2
78467;SHT31;67759;51.972;5.650;2023-04-25T06:43:13;9.6;62.5
78467;SHT31;67759;51.972;5.650;2023-04-25T06:45:43;9.6;62.4
78467;SHT31;67759;51.972;5.650;2023-04-25T06:48:12;9.7;62.0
78467;SHT31;67759;51.972;5.650;2023-04-25T06:50:43;9.8;61.4
78467;SHT31;67759;51.972;5.650;2023-04-25T06:53:12;9.9;61.3
78467;SHT31;67759;51.972;5.650;2023-04-25T06:55:44;10.0;60.1
78467;SHT31;67759;51.972;5.650;2023-04-25T06:58:14;10.0;59.7
78467;SHT31;67759;51.972;5.650;2023-04-25T07:00:44;10.1;60.6
78467;SHT31;67759;51.972;5.650;2023-04-25T07:03:13;10.2;60.3
78467;SHT31;67759;51.972;5.650;2023-04-25T07:05:45;10.2;60.7
78467;SHT31;67759;51.972;5.650;2023-04-25T07:08:15;10.3;60.2
78467;SHT31;67759;51.972;5.650;2023-04-25T07:10:44;10.4;58.4
78467;SHT31;67759;51.972;5.650;2023-04-25T07:13:15;10.5;57.9
78467;SHT31;67759;51.972;5.650;2023-04-25T07:15:45;10.6;57.9
78467;SHT31;67759;51.972;5.650;2023-04-25T07:18:16;10.7;56.9
78467;SHT31;67759;51.972;5.650;2023-04-25T07:20:47;10.8;56.6
78467;SHT31;67759;51.972;5.650;2023-04-25T07:23:17;10.8;55.7
78467;SHT31;67759;51.972;5.650;2023-04-25T07:25:47;10.8;56.2
78467;SHT31;67759;51.972;5.650;2023-04-25T07:28:18;10.9;55.4
78467;SHT31;67759;51.972;5.650;2023-04-25T07:30:49;10.9;55.2
78467;SHT31;67759;51.972;5.650;2023-04-25T07:33:19;10.9;55.6
78467;SHT31;67759;51.972;5.650;2023-04-25T07:35:51;10.9;55.4
78467;SHT31;67759;51.972;5.650;2023-04-25T07:38:22;10.9;55.6
78467;SHT31;67759;51.972;5.650;2023-04-25T07:40:51;10.9;55.3
78467;SHT31;67759;51.972;5.650;2023-04-25T07:43:22;10.9;56.0
78467;SHT31;67759;51.972;5.650;2023-04-25T07:45:52;10.9;56.0
78467;SHT31;67759;51.972;5.650;2023-04-25T07:48:21;10.9;55.3
78467;SHT31;67759;51.972;5.650;2023-04-25T07:50:53;10.9;55.9
78467;SHT31;67759;51.972;5.650;2023-04-25T07:53:22;10.9;56.3
78467;SHT31;67759;51.972;5.650;2023-04-25T07:55:54;11.0;55.4
78467;SHT31;67759;51.972;5.650;2023-04-25T07:58:24;11.1;55.2
78467;SHT31;67759;51.972;5.650;2023-04-25T08:00:53;11.1;55.0
78467;SHT31;67759;51.972;5.650;2023-04-25T08:03:23;11.1;55.5
78467;SHT31;67759;51.972;5.650;2023-04-25T08:05:52;11.2;55.0
78467;SHT31;67759;51.972;5.650;2023-04-25T08:08:22;11.3;54.2
78467;SHT31;67759;51.972;5.650;2023-04-25T08:10:52;11.4;54.1
78467;SHT31;67759;51.972;5.650;2023-04-25T08:13:21;11.4;53.8
78467;SHT31;67759;51.972;5.650;2023-04-25T08:15:51;11.5;52.5
78467;SHT31;67759;51.972;5.650;2023-04-25T08:18:21;11.7;54.1
78467;SHT31;67759;51.972;5.650;2023-04-25T08:20:50;12.0;51.4
78467;SHT31;67759;51.972;5.650;2023-04-25T08:23:19;12.1;51.2
78467;SHT31;67759;51.972;5.650;2023-04-25T08:25:49;12.3;50.3
78467;SHT31;67759;51.972;5.650;2023-04-25T08:28:18;12.4;50.3
78467;SHT31;67759;51.972;5.650;2023-04-25T08:30:48;12.6;50.6
78467;SHT31;67759;51.972;5.650;2023-04-25T08:33:17;12.7;49.1
78467;SHT31;67759;51.972;5.650;2023-04-25T08:35:47;12.8;50.2
78467;SHT31;67759;51.972;5.650;2023-04-25T08:38:17;12.9;47.6
78467;SHT31;67759;51.972;5.650;2023-04-25T08:40:49;13.0;47.9
78467;SHT31;67759;51.972;5.650;2023-04-25T08:43:20;13.0;47.5
78467;SHT31;67759;51.972;5.650;2023-04-25T08:45:53;13.1;47.8
78467;SHT31;67759;51.972;5.650;2023-04-25T08:48:24;13.2;46.5
78467;SHT31;67759;51.972;5.650;2023-04-25T08:50:56;13.2;47.5
78467;SHT31;67759;51.972;5.650;2023-04-25T08:53:28;13.2;46.1
78467;SHT31;67759;51.972;5.650;2023-04-25T08:56:00;13.3;47.3
78467;SHT31;67759;51.972;5.650;2023-04-25T08:58:32;13.4;45.3
78467;SHT31;67759;51.972;5.650;2023-04-25T09:01:01;13.5;44.4
78467;SHT31;67759;51.972;5.650;2023-04-25T09:03:33;13.7;45.7
78467;SHT31;67759;51.972;5.650;2023-04-25T09:06:03;13.8;44.8
78467;SHT31;67759;51.972;5.650;2023-04-25T09:08:33;13.8;45.9
78467;SHT31;67759;51.972;5.650;2023-04-25T09:11:04;13.8;45.7
78467;SHT31;67759;51.972;5.650;2023-04-25T09:13:38;13.7;46.9
78467;SHT31;67759;51.972;5.650;2023-04-25T09:16:08;13.7;45.7
78467;SHT31;67759;51.972;5.650;2023-04-25T09:18:38;13.7;43.4
78467;SHT31;67759;51.972;5.650;2023-04-25T09:21:09;13.7;45.6
78467;SHT31;67759;51.972;5.650;2023-04-25T09:23:46;13.7;44.0
78467;SHT31;67759;51.972;5.650;2023-04-25T09:26:17;13.7;45.0
78467;SHT31;67759;51.972;5.650;2023-04-25T09:28:47;13.8;44.2
78467;SHT31;67759;51.972;5.650;2023-04-25T09:31:23;13.7;44.7
78467;SHT31;67759;51.972;5.650;2023-04-25T09:33:58;13.8;45.0
78467;SHT31;67759;51.972;5.650;2023-04-25T09:36:30;13.8;45.1
78467;SHT31;67759;51.972;5.650;2023-04-25T09:39:00;13.8;44.1
78467;SHT31;67759;51.972;5.650;2023-04-25T09:41:30;13.9;43.8
78467;SHT31;67759;51.972;5.650;2023-04-25T09:44:00;13.9;42.8
78467;SHT31;67759;51.972;5.650;2023-04-25T09:46:34;13.9;41.3
78467;SHT31;67759;51.972;5.650;2023-04-25T09:49:08;14.0;41.4
78467;SHT31;67759;51.972;5.650;2023-04-25T09:51:37;14.0;42.3
78467;SHT31;67759;51.972;5.650;2023-04-25T09:54:07;14.1;42.0
78467;SHT31;67759;51.972;5.650;2023-04-25T09:56:38;14.2;42.2
78467;SHT31;67759;51.972;5.650;2023-04-25T09:59:08;14.4;41.9
78467;SHT31;67759;51.972;5.650;2023-04-25T10:01:40;14.6;42.1
78467;SHT31;67759;51.972;5.650;2023-04-25T10:04:11;14.9;40.7
78467;SHT31;67759;51.972;5.650;2023-04-25T10:06:42;15.1;39.5
78467;SHT31;67759;51.972;5.650;2023-04-25T10:09:14;15.2;40.4
78467;SHT31;67759;51.972;5.650;2023-04-25T10:11:46;15.2;40.6
78467;SHT31;67759;51.972;5.650;2023-04-25T10:14:16;15.2;40.2
78467;SHT31;67759;51.972;5.650;2023-04-25T10:16:47;15.2;40.1
78467;SHT31;67759;51.972;5.650;2023-04-25T10:19:21;15.1;40.2
78467;SHT31;67759;51.972;5.650;2023-04-25T10:21:54;15.1;39.8
78467;SHT31;67759;51.972;5.650;2023-04-25T10:24:26;15.1;41.1
78467;SHT31;67759;51.972;5.650;2023-04-25T10:26:58;15.1;40.7
78467;SHT31;67759;51.972;5.650;2023-04-25T10:29:29;15.0;42.9
78467;SHT31;67759;51.972;5.650;2023-04-25T10:31:58;15.0;42.1
78467;SHT31;67759;51.972;5.650;2023-04-25T10:34:40;15.0;42.5
78467;SHT31;67759;51.972;5.650;2023-04-25T10:37:12;14.9;40.4
78467;SHT31;67759;51.972;5.650;2023-04-25T10:39:42;14.9;39.6
78467;SHT31;67759;51.972;5.650;2023-04-25T10:42:12;14.9;40.7
78467;SHT31;67759;51.972;5.650;2023-04-25T10:45:02;14.8;39.8
78467;SHT31;67759;51.972;5.650;2023-04-25T10:47:44;14.8;39.5
78467;SHT31;67759;51.972;5.650;2023-04-25T10:50:15;14.9;40.3
78467;SHT31;67759;51.972;5.650;2023-04-25T10:52:45;14.9;39.5
78467;SHT31;67759;51.972;5.650;2023-04-25T10:55:15;14.9;40.6
78467;SHT31;67759;51.972;5.650;2023-04-25T10:57:45;15.0;39.7
78467;SHT31;67759;51.972;5.650;2023-04-25T11:00:19;15.0;39.0
78467;SHT31;67759;51.972;5.650;2023-04-25T11:02:57;15.1;39.6
78467;SHT31;67759;51.972;5.650;2023-04-25T11:05:32;15.1;38.9
78467;SHT31;67759;51.972;5.650;2023-04-25T11:08:02;15.2;39.8
78467;SHT31;67759;51.972;5.650;2023-04-25T11:10:37;15.3;37.2
78467;SHT31;67759;51.972;5.650;2023-04-25T11:13:09;15.4;38.6
78467;SHT31;67759;51.972;5.650;2023-04-25T11:15:39;15.5;39.3
78467;SHT31;67759;51.972;5.650;2023-04-25T11:18:08;15.6;37.8
78467;SHT31;67759;51.972;5.650;2023-04-25T11:20:38;15.7;36.7
78467;SHT31;67759;51.972;5.650;2023-04-25T11:23:11;15.8;37.2
78467;SHT31;67759;51.972;5.650;2023-04-25T11:25:41;15.9;35.8
78467;SHT31;67759;51.972;5.650;2023-04-25T11:28:11;16.0;35.0
78467;SHT31;67759;51.972;5.650;2023-04-25T11:30:49;16.0;35.2
78467;SHT31;67759;51.972;5.650;2023-04-25T11:33:25;16.0;35.4
78467;SHT31;67759;51.972;5.650;2023-04-25T11:35:55;16.0;37.0
78467;SHT31;67759;51.972;5.650;2023-04-25T11:38:26;16.0;35.5
78467;SHT31;67759;51.972;5.650;2023-04-25T11:40:57;16.1;35.5
78467;SHT31;67759;51.972;5.650;2023-04-25T11:43:27;16.1;35.9
78467;SHT31;67759;51.972;5.650;2023-04-25T11:45:56;16.1;36.3
78467;SHT31;67759;51.972;5.650;2023-04-25T11:48:28;16.2;35.8
78467;SHT31;67759;51.972;5.650;2023-04-25T11:51:04;16.2;36.1
78467;SHT31;67759;51.972;5.650;2023-04-25T11:53:38;16.3;36.8
78467;SHT31;67759;51.972;5.650;2023-04-25T11:56:11;16.3;38.4
78467;SHT31;67759;51.972;5.650;2023-04-25T11:58:57;16.2;40.4
78467;SHT31;67759;51.972;5.650;2023-04-25T12:01:30;16.1;38.7
78467;SHT31;67759;51.972;5.650;2023-04-25T12:04:13;16.0;40.0
78467;SHT31;67759;51.972;5.650;2023-04-25T12:06:45;16.0;40.6
78467;SHT31;67759;51.972;5.650;2023-04-25T12:09:17;15.9;40.7
78467;SHT31;67759;51.972;5.650;2023-04-25T12:11:53;15.9;40.5
78467;SHT31;67759;51.972;5.650;2023-04-25T12:14:25;15.8;40.8
78467;SHT31;67759;51.972;5.650;2023-04-25T12:16:57;15.9;41.4
78467;SHT31;67759;51.972;5.650;2023-04-25T12:19:31;15.9;40.9
78467;SHT31;67759;51.972;5.650;2023-04-25T12:22:03;15.9;39.0
78467;SHT31;67759;51.972;5.650;2023-04-25T12:24:34;16.0;39.3
78467;SHT31;67759;51.972;5.650;2023-04-25T12:27:06;16.1;39.0
78467;SHT31;67759;51.972;5.650;2023-04-25T12:29:37;16.2;37.2
78467;SHT31;67759;51.972;5.650;2023-04-25T12:32:07;16.3;37.3
78467;SHT31;67759;51.972;5.650;2023-04-25T12:34:36;16.4;37.2
78467;SHT31;67759;51.972;5.650;2023-04-25T12:37:06;16.5;38.3
78467;SHT31;67759;51.972;5.650;2023-04-25T12:39:36;16.6;36.7
78467;SHT31;67759;51.972;5.650;2023-04-25T12:42:07;16.7;35.9
78467;SHT31;67759;51.972;5.650;2023-04-25T12:44:39;16.7;37.1
78467;SHT31;67759;51.972;5.650;2023-04-25T12:47:09;16.7;37.0
78467;SHT31;67759;51.972;5.650;2023-04-25T12:49:39;16.8;37.7
78467;SHT31;67759;51.972;5.650;2023-04-25T12:52:09;16.8;38.2
78467;SHT31;67759;51.972;5.650;2023-04-25T12:54:38;16.8;36.0
78467;SHT31;67759;51.972;5.650;2023-04-25T12:57:08;16.9;36.7
78467;SHT31;67759;51.972;5.650;2023-04-25T12:59:39;16.9;36.2
78467;SHT31;67759;51.972;5.650;2023-04-25T13:02:10;16.9;37.1
78467;SHT31;67759;51.972;5.650;2023-04-25T13:04:40;16.9;37.3
78467;SHT31;67759;51.972;5.650;2023-04-25T13:07:10;16.8;38.0
78467;SHT31;67759;51.972;5.650;2023-04-25T13:09:39;16.7;36.7
78467;SHT31;67759;51.972;5.650;2023-04-25T13:12:09;16.6;37.6
78467;SHT31;67759;51.972;5.650;2023-04-25T13:14:40;16.6;37.0
78467;SHT31;67759;51.972;5.650;2023-04-25T13:17:10;16.6;35.3
78467;SHT31;67759;51.972;5.650;2023-04-25T13:19:39;16.6;36.8
78467;SHT31;67759;51.972;5.650;2023-04-25T13:22:09;16.5;35.7
78467;SHT31;67759;51.972;5.650;2023-04-25T13:24:38;16.5;37.5
78467;SHT31;67759;51.972;5.650;2023-04-25T13:27:10;16.5;36.5
78467;SHT31;67759;51.972;5.650;2023-04-25T13:29:42;16.5;35.2
78467;SHT31;67759;51.972;5.650;2023-04-25T13:32:13;16.5;36.4
78467;SHT31;67759;51.972;5.650;2023-04-25T13:34:42;16.6;34.5
78467;SHT31;67759;51.972;5.650;2023-04-25T13:37:11;16.6;35.0
78467;SHT31;67759;51.972;5.650;2023-04-25T13:39:41;16.5;34.7
78467;SHT31;67759;51.972;5.650;2023-04-25T13:42:10;16.5;35.8
78467;SHT31;67759;51.972;5.650;2023-04-25T13:44:40;16.4;35.5
78467;SHT31;67759;51.972;5.650;2023-04-25T13:47:09;16.3;36.2
78467;SHT31;67759;51.972;5.650;2023-04-25T13:49:39;16.3;36.1
78467;SHT31;67759;51.972;5.650;2023-04-25T13:52:08;16.3;36.1
78467;SHT31;67759;51.972;5.650;2023-04-25T13:54:39;16.2;37.3
78467;SHT31;67759;51.972;5.650;2023-04-25T13:57:09;16.3;36.6
78467;SHT31;67759;51.972;5.650;2023-04-25T13:59:39;16.4;37.0
78467;SHT31;67759;51.972;5.650;2023-04-25T14:02:11;16.5;35.7
78467;SHT31;67759;51.972;5.650;2023-04-25T14:04:41;16.5;36.8
78467;SHT31;67759;51.972;5.650;2023-04-25T14:07:13;16.5;36.3
78467;SHT31;67759;51.972;5.650;2023-04-25T14:09:45;16.4;36.5
78467;SHT31;67759;51.972;5.650;2023-04-25T14:12:15;16.3;37.1
78467;SHT31;67759;51.972;5.650;2023-04-25T14:14:45;16.2;36.5
78467;SHT31;67759;51.972;5.650;2023-04-25T14:17:15;16.1;37.7
78467;SHT31;67759;51.972;5.650;2023-04-25T14:19:44;15.9;38.5
78467;SHT31;67759;51.972;5.650;2023-04-25T14:22:15;15.8;39.5
78467;SHT31;67759;51.972;5.650;2023-04-25T14:24:46;15.8;39.4
78467;SHT31;67759;51.972;5.650;2023-04-25T14:27:16;15.8;37.4
78467;SHT31;67759;51.972;5.650;2023-04-25T14:29:46;15.8;37.5
78467;SHT31;67759;51.972;5.650;2023-04-25T14:32:15;15.9;37.3
78467;SHT31;67759;51.972;5.650;2023-04-25T14:34:45;15.9;37.4
78467;SHT31;67759;51.972;5.650;2023-04-25T14:37:15;15.8;37.2
78467;SHT31;67759;51.972;5.650;2023-04-25T14:39:44;15.8;37.3
78467;SHT31;67759;51.972;5.650;2023-04-25T14:42:14;15.8;36.1
78467;SHT31;67759;51.972;5.650;2023-04-25T14:44:43;15.8;36.3
78467;SHT31;67759;51.972;5.650;2023-04-25T14:47:14;15.8;37.1
78467;SHT31;67759;51.972;5.650;2023-04-25T14:49:44;15.7;37.3
78467;SHT31;67759;51.972;5.650;2023-04-25T14:52:18;15.7;37.5
78467;SHT31;67759;51.972;5.650;2023-04-25T14:54:48;15.7;36.1
78467;SHT31;67759;51.972;5.650;2023-04-25T14:57:18;15.7;36.1
78467;SHT31;67759;51.972;5.650;2023-04-25T14:59:48;15.7;37.5
78467;SHT31;67759;51.972;5.650;2023-04-25T15:02:18;15.7;37.1
78467;SHT31;67759;51.972;5.650;2023-04-25T15:04:48;15.7;36.0
78467;SHT31;67759;51.972;5.650;2023-04-25T15:07:18;15.7;36.7
78467;SHT31;67759;51.972;5.650;2023-04-25T15:09:48;15.6;35.4
78467;SHT31;67759;51.972;5.650;2023-04-25T15:12:20;15.6;37.4
78467;SHT31;67759;51.972;5.650;2023-04-25T15:14:51;15.6;36.9
78467;SHT31;67759;51.972;5.650;2023-04-25T15:17:21;15.6;36.7
78467;SHT31;67759;51.972;5.650;2023-04-25T15:19:50;15.6;36.1
78467;SHT31;67759;51.972;5.650;2023-04-25T15:22:22;15.5;36.1
78467;SHT31;67759;51.972;5.650;2023-04-25T15:24:51;15.5;35.8
78467;SHT31;67759;51.972;5.650;2023-04-25T15:27:24;15.6;37.2
78467;SHT31;67759;51.972;5.650;2023-04-25T15:29:54;15.7;37.4
78467;SHT31;67759;51.972;5.650;2023-04-25T15:32:24;15.7;37.5
78467;SHT31;67759;51.972;5.650;2023-04-25T15:34:53;15.7;38.4
78467;SHT31;67759;51.972;5.650;2023-04-25T15:37:23;15.6;38.0
78467;SHT31;67759;51.972;5.650;2023-04-25T15:40:02;15.4;38.5
78467;SHT31;67759;51.972;5.650;2023-04-25T15:42:37;15.3;38.8
78467;SHT31;67759;51.972;5.650;2023-04-25T15:45:09;15.2;38.0
78467;SHT31;67759;51.972;5.650;2023-04-25T15:47:39;15.0;37.9
78467;SHT31;67759;51.972;5.650;2023-04-25T15:50:09;14.9;38.1
78467;SHT31;67759;51.972;5.650;2023-04-25T15:52:39;14.7;37.8
78467;SHT31;67759;51.972;5.650;2023-04-25T15:55:10;14.6;38.0
78467;SHT31;67759;51.972;5.650;2023-04-25T15:57:43;14.5;38.2
78467;SHT31;67759;51.972;5.650;2023-04-25T16:00:13;14.4;38.8
78467;SHT31;67759;51.972;5.650;2023-04-25T16:02:45;14.4;39.0
78467;SHT31;67759;51.972;5.650;2023-04-25T16:05:15;14.3;40.6
78467;SHT31;67759;51.972;5.650;2023-04-25T16:07:46;14.3;40.2
78467;SHT31;67759;51.972;5.650;2023-04-25T16:10:18;14.3;39.5
78467;SHT31;67759;51.972;5.650;2023-04-25T16:12:48;14.2;39.7
78467;SHT31;67759;51.972;5.650;2023-04-25T16:15:18;14.2;39.8
78467;SHT31;67759;51.972;5.650;2023-04-25T16:17:48;14.2;39.6
78467;SHT31;67759;51.972;5.650;2023-04-25T16:20:17;14.1;39.5
78467;SHT31;67759;51.972;5.650;2023-04-25T16:22:47;14.1;38.4
78467;SHT31;67759;51.972;5.650;2023-04-25T16:25:19;14.0;38.4
78467;SHT31;67759;51.972;5.650;2023-04-25T16:27:49;13.9;39.1
78467;SHT31;67759;51.972;5.650;2023-04-25T16:30:18;13.8;40.3
78467;SHT31;67759;51.972;5.650;2023-04-25T16:32:48;13.9;40.4